Time;durP1;ratioP1;P1;durP2;ratioP2;P2;SDS_P1;SDS_P2;PMS_P1;PMS_P2;Temp;Humidity;BMP_temperature;BMP_pressure;BME280_temperature;BME280_humidity;BME280_pressure;Samples;Min_cycle;Max_cycle;Signal;HPM_P1;HPM_P2
2022/03/07 00:00:26;;;;;;;6.45;2.83;;;1.20;99.90;;;;;;2128228;67;20236;-66
2022/03/07 00:03:10;;;;;;;8.35;2.80;;;1.20;99.90;;;;;;2120852;67;20286;-66
2022/03/07 00:05:53;;;;;;;5.53;3.00;;;1.30;99.90;;;;;;2129993;67;20331;-66
2022/03/07 00:08:35;;;;;;;3.75;3.03;;;1.10;99.90;;;;;;2135110;67;20174;-66
2022/03/07 00:11:17;;;;;;;4.85;2.42;;;1.00;99.90;;;;;;2120867;67;20242;-67
2022/03/07 00:14:01;;;;;;;4.72;2.63;;;1.00;99.90;;;;;;2124326;67;20641;-66
2022/03/07 00:16:46;;;;;;;4.18;2.83;;;1.00;99.90;;;;;;2117116;67;20250;-65
2022/03/07 00:19:29;;;;;;;5.53;2.75;;;1.00;99.90;;;;;;2122532;67;20841;-66
2022/03/07 00:22:11;;;;;;;3.95;2.72;;;0.90;99.90;;;;;;2131542;67;20412;-66
2022/03/07 00:24:56;;;;;;;6.65;2.78;;;0.90;99.90;;;;;;2123932;67;20200;-67
2022/03/07 00:27:38;;;;;;;5.15;2.65;;;0.90;99.90;;;;;;2124431;67;20875;-66
2022/03/07 00:30:24;;;;;;;5.80;2.97;;;0.90;99.90;;;;;;2143725;66;20178;-66
2022/03/07 00:33:09;;;;;;;5.43;2.90;;;0.80;99.90;;;;;;2119047;67;20188;-65
2022/03/07 00:35:53;;;;;;;7.93;2.57;;;0.80;99.90;;;;;;2123961;67;20333;-65
2022/03/07 00:38:35;;;;;;;7.00;2.85;;;0.80;99.90;;;;;;2110498;67;20714;-66
2022/03/07 00:41:18;;;;;;;8.57;2.75;;;0.70;99.90;;;;;;2109982;67;20205;-66
2022/03/07 00:44:02;;;;;;;6.78;2.80;;;0.70;99.90;;;;;;2121030;67;20349;-67
2022/03/07 00:46:44;;;;;;;4.47;2.50;;;0.70;99.90;;;;;;2120693;67;20371;-65
2022/03/07 00:49:27;;;;;;;4.72;2.78;;;0.60;99.90;;;;;;2132295;67;20919;-66
2022/03/07 00:52:08;;;;;;;11.88;3.25;;;0.60;99.90;;;;;;2134238;67;20171;-65
2022/03/07 00:54:50;;;;;;;7.63;2.70;;;0.60;99.90;;;;;;2132742;66;20751;-66
2022/03/07 00:57:33;;;;;;;6.65;3.42;;;0.60;99.90;;;;;;2137907;66;20162;-66
2022/03/07 01:00:16;;;;;;;6.80;3.22;;;0.50;99.90;;;;;;2146359;66;20805;-66
2022/03/07 01:02:57;;;;;;;5.78;2.90;;;0.50;99.90;;;;;;2161460;66;20337;-66
2022/03/07 01:05:40;;;;;;;8.25;3.03;;;0.50;99.90;;;;;;2161377;66;20708;-66
2022/03/07 01:08:22;;;;;;;4.32;3.00;;;0.60;99.90;;;;;;2148176;66;20213;-65
2022/03/07 01:11:06;;;;;;;5.10;2.97;;;0.50;99.90;;;;;;2151681;66;20169;-66
2022/03/07 01:13:48;;;;;;;4.95;2.80;;;0.40;99.90;;;;;;2146658;66;20249;-65
2022/03/07 01:16:35;;;;;;;3.92;2.63;;;0.40;99.90;;;;;;2132653;67;20201;-67
2022/03/07 01:19:18;;;;;;;4.75;2.60;;;0.40;99.90;;;;;;2150331;66;20350;-66
2022/03/07 01:22:00;;;;;;;4.10;2.67;;;0.40;99.90;;;;;;2155449;66;20795;-66
2022/03/07 01:24:42;;;;;;;4.72;2.88;;;0.60;99.90;;;;;;2168697;66;20163;-68
2022/03/07 01:27:23;;;;;;;5.70;2.80;;;0.40;99.90;;;;;;2161346;66;20293;-66
2022/03/07 01:30:06;;;;;;;3.75;2.53;;;0.40;99.90;;;;;;2151481;66;20844;-66
2022/03/07 01:32:48;;;;;;;8.95;3.15;;;0.30;99.90;;;;;;2148266;66;20675;-66
2022/03/07 01:35:36;;;;;;;4.38;3.20;;;0.30;99.90;;;;;;2146855;66;20344;-66
2022/03/07 01:38:18;;;;;;;5.95;2.95;;;0.20;99.90;;;;;;2154406;66;20177;-66
2022/03/07 01:41:03;;;;;;;5.93;2.95;;;0.30;99.90;;;;;;2140024;66;20187;-65
2022/03/07 01:43:48;;;;;;;4.65;3.53;;;0.20;99.90;;;;;;2146818;66;20174;-66
2022/03/07 01:46:33;;;;;;;5.38;3.65;;;0.10;99.90;;;;;;2147364;66;20744;-65
2022/03/07 01:49:18;;;;;;;7.70;3.15;;;0.10;99.90;;;;;;2149284;66;20221;-65
2022/03/07 01:52:03;;;;;;;;;;;0.10;99.90;;;;;;2160715;66;20310;-66
2022/03/07 01:54:46;;;;;;;3.00;2.58;;;0.00;99.90;;;;;;2153345;66;20118;-66
2022/03/07 01:57:30;;;;;;;9.68;2.92;;;0.00;99.90;;;;;;2157800;66;20255;-65
2022/03/07 02:00:18;;;;;;;5.95;3.25;;;0.00;99.90;;;;;;2149518;66;20349;-67
2022/03/07 02:03:02;;;;;;;7.93;3.47;;;-0.10;99.90;;;;;;2152803;66;20205;-66
2022/03/07 02:05:46;;;;;;;9.20;3.70;;;-0.10;99.90;;;;;;2153383;66;20634;-66
2022/03/07 02:08:30;;;;;;;4.13;2.90;;;-0.20;99.90;;;;;;2155887;66;20482;-65
2022/03/07 02:11:14;;;;;;;;;;;-0.20;99.90;;;;;;2148155;66;20230;-68
2022/03/07 02:13:56;;;;;;;7.88;3.38;;;-0.20;99.90;;;;;;2150929;66;20116;-66
2022/03/07 02:16:41;;;;;;;4.50;3.00;;;-0.20;99.90;;;;;;2133944;67;20183;-65
2022/03/07 02:19:25;;;;;;;6.30;3.75;;;-0.60;99.90;;;;;;2140289;67;20441;-64
2022/03/07 02:22:07;;;;;;;7.80;3.83;;;-0.30;99.90;;;;;;2127337;67;20499;-65
2022/03/07 02:24:53;;;;;;;5.53;4.00;;;-0.30;99.90;;;;;;2126062;67;20258;-65
2022/03/07 02:27:40;;;;;;;7.10;3.35;;;-0.40;99.90;;;;;;2131313;67;20397;-66
2022/03/07 02:30:22;;;;;;;5.70;3.55;;;-0.40;99.90;;;;;;2123138;67;20369;-66
2022/03/07 02:33:12;;;;;;;5.97;3.83;;;-0.50;99.90;;;;;;2112156;67;20636;-66
2022/03/07 02:35:56;;;;;;;4.32;3.17;;;-0.50;99.90;;;;;;2107259;67;20294;-65
2022/03/07 02:38:38;;;;;;;6.10;3.75;;;-0.50;99.90;;;;;;2124698;67;20180;-66
2022/03/07 02:41:20;;;;;;;7.22;3.30;;;-0.60;99.90;;;;;;2133516;66;20369;-65
2022/03/07 02:44:02;;;;;;;5.22;4.30;;;-0.60;99.90;;;;;;2144584;66;20412;-65
2022/03/07 02:46:43;;;;;;;7.03;4.63;;;-0.60;99.90;;;;;;2132427;67;20304;-66
2022/03/07 02:49:25;;;;;;;6.50;5.07;;;-0.60;99.90;;;;;;2123025;67;20204;-65
2022/03/07 02:52:08;;;;;;;10.35;4.30;;;-0.60;99.90;;;;;;2129407;67;20260;-66
2022/03/07 02:54:51;;;;;;;5.38;4.22;;;-0.70;99.90;;;;;;2114678;67;20301;-65
2022/03/07 02:57:36;;;;;;;8.70;3.97;;;-0.70;99.90;;;;;;2116481;67;20196;-65
2022/03/07 03:00:18;;;;;;;7.80;4.38;;;-0.70;99.90;;;;;;2125004;67;20235;-66
2022/03/07 03:03:01;;;;;;;7.57;4.45;;;-0.80;99.90;;;;;;2145869;66;20349;-65
2022/03/07 03:05:46;;;;;;;8.70;5.25;;;-0.80;99.90;;;;;;2172087;66;20317;-63
2022/03/07 03:08:29;;;;;;;11.85;4.72;;;-0.80;99.90;;;;;;2176087;65;20192;-66
2022/03/07 03:11:18;;;;;;;10.13;5.25;;;-0.90;99.90;;;;;;2168014;66;20264;-65
2022/03/07 03:14:02;;;;;;;;;;;-0.90;99.90;;;;;;2154246;66;20339;-65
2022/03/07 03:16:47;;;;;;;8.73;4.82;;;-0.20;99.90;;;;;;2154391;66;20066;-65
2022/03/07 03:19:29;;;;;;;10.77;5.68;;;-0.90;99.90;;;;;;2140601;66;20273;-66
2022/03/07 03:22:11;;;;;;;9.35;5.88;;;-1.00;99.90;;;;;;2159250;66;20611;-68
2022/03/07 03:24:53;;;;;;;10.80;5.30;;;-1.00;99.90;;;;;;2159788;66;20505;-65
2022/03/07 03:27:36;;;;;;;7.55;5.55;;;-1.00;99.90;;;;;;2172917;65;20333;-66
2022/03/07 03:30:21;;;;;;;9.10;5.45;;;-1.10;99.90;;;;;;2157407;66;20749;-66
2022/03/07 03:33:02;;;;;;;10.15;5.80;;;-1.10;99.90;;;;;;2166323;66;20240;-65
2022/03/07 03:35:44;;;;;;;9.02;4.85;;;-1.10;99.90;;;;;;2176330;65;20748;-65
2022/03/07 03:38:26;;;;;;;10.98;6.43;;;-0.80;99.90;;;;;;2181388;65;20757;-65
2022/03/07 03:41:07;;;;;;;11.38;6.15;;;-1.10;99.90;;;;;;2183346;65;20171;-67
2022/03/07 03:43:49;;;;;;;11.70;6.75;;;-1.20;99.90;;;;;;2168552;66;20198;-66
2022/03/07 03:46:31;;;;;;;10.63;6.25;;;-1.20;99.90;;;;;;2175787;65;20598;-66
2022/03/07 03:49:13;;;;;;;9.02;6.18;;;-1.20;99.90;;;;;;2189942;65;20621;-66
2022/03/07 03:51:56;;;;;;;11.43;6.78;;;-1.20;99.90;;;;;;2178799;65;20175;-65
2022/03/07 03:54:37;;;;;;;13.80;6.72;;;-1.20;99.90;;;;;;2171733;65;20218;-65
2022/03/07 03:57:19;;;;;;;10.25;6.68;;;-1.20;99.90;;;;;;2157457;66;20280;-66
2022/03/07 04:00:01;;;;;;;11.07;7.00;;;-0.80;99.90;;;;;;2169858;65;20171;-66
2022/03/07 04:02:47;;;;;;;13.02;8.00;;;-1.30;99.90;;;;;;2169992;65;20197;-64
2022/03/07 04:05:29;;;;;;;12.88;7.80;;;-1.30;99.90;;;;;;2168277;66;20407;-66
2022/03/07 04:08:10;;;;;;;14.45;8.48;;;-1.30;99.90;;;;;;2159891;66;20421;-66
2022/03/07 04:10:53;;;;;;;12.00;7.28;;;-1.30;99.90;;;;;;2139859;66;20747;-66
2022/03/07 04:13:39;;;;;;;16.08;8.07;;;-1.30;99.90;;;;;;2149583;66;20166;-65
2022/03/07 04:16:22;;;;;;;11.77;6.95;;;-1.30;99.90;;;;;;2161343;66;20395;-65
2022/03/07 04:19:10;;;;;;;14.13;8.02;;;-1.30;99.90;;;;;;2162413;66;20346;-65
2022/03/07 04:21:52;;;;;;;16.17;8.38;;;-1.30;99.90;;;;;;2154802;66;20311;-65
2022/03/07 04:24:35;;;;;;;17.50;8.70;;;-1.40;99.90;;;;;;2141644;67;20241;-65
2022/03/07 04:27:18;;;;;;;21.55;11.25;;;-1.40;99.90;;;;;;2136338;67;20180;-66
2022/03/07 04:30:04;;;;;;;;;;;-1.40;99.90;;;;;;2136353;67;20826;-65
2022/03/07 04:32:46;;;;;;;20.77;10.18;;;-1.40;99.90;;;;;;2138823;67;20286;-66
2022/03/07 04:35:28;;;;;;;16.33;9.05;;;-1.40;99.90;;;;;;2133844;66;20316;-67
2022/03/07 04:38:11;;;;;;;16.30;9.48;;;-1.40;99.90;;;;;;2147911;66;20641;-65
2022/03/07 04:40:53;;;;;;;17.65;9.93;;;-1.40;99.90;;;;;;2134959;66;20242;-65
2022/03/07 04:43:35;;;;;;;17.02;9.80;;;-1.50;99.90;;;;;;2141875;67;20278;-66
2022/03/07 04:46:17;;;;;;;14.82;9.25;;;-1.50;99.90;;;;;;2140683;66;20167;-65
2022/03/07 04:48:59;;;;;;;16.05;9.18;;;-1.30;99.90;;;;;;2141545;66;20337;-67
2022/03/07 04:51:45;;;;;;;16.80;8.68;;;-1.50;99.90;;;;;;2136938;67;20735;-65
2022/03/07 04:54:28;;;;;;;17.23;9.40;;;-1.60;99.90;;;;;;2140007;66;20262;-66
2022/03/07 04:57:12;;;;;;;19.10;9.23;;;-1.50;99.90;;;;;;2137912;66;20163;-65
2022/03/07 04:59:53;;;;;;;14.45;9.00;;;-1.50;99.90;;;;;;2130982;67;20345;-65
2022/03/07 05:02:36;;;;;;;18.40;10.10;;;-1.60;99.90;;;;;;2128291;67;20330;-66
2022/03/07 05:05:18;;;;;;;17.88;8.50;;;-1.60;99.90;;;;;;2139442;66;20178;-66
2022/03/07 05:07:59;;;;;;;15.38;8.00;;;-1.50;99.90;;;;;;2153354;66;20770;-65
2022/03/07 05:10:41;;;;;;;13.10;7.32;;;-1.60;99.90;;;;;;2148905;66;20315;-66
2022/03/07 05:13:23;;;;;;;12.43;7.75;;;-1.60;99.90;;;;;;2176628;65;20168;-66
2022/03/07 05:16:07;;;;;;;14.88;7.32;;;-1.50;99.90;;;;;;2162981;66;20376;-66
2022/03/07 05:18:52;;;;;;;13.98;7.68;;;-1.70;99.90;;;;;;2154836;66;20250;-66
2022/03/07 05:21:38;;;;;;;19.42;9.65;;;-1.70;99.90;;;;;;2161701;66;20750;-66
2022/03/07 05:24:22;;;;;;;20.33;9.77;;;-1.70;99.90;;;;;;2141221;66;20343;-67
2022/03/07 05:27:03;;;;;;;17.83;9.93;;;-1.70;99.90;;;;;;2126178;67;20675;-65
2022/03/07 05:29:45;;;;;;;9.63;7.22;;;-1.70;99.90;;;;;;2147489;66;20170;-65
2022/03/07 05:32:27;;;;;;;12.48;7.10;;;-1.80;99.90;;;;;;2153683;66;20891;-66
2022/03/07 05:35:10;;;;;;;9.73;6.60;;;-1.80;99.90;;;;;;2181111;65;20332;-65
2022/03/07 05:37:54;;;;;;;12.75;8.02;;;-1.80;99.90;;;;;;2184085;65;20198;-66
2022/03/07 05:40:36;;;;;;;13.02;7.32;;;-1.80;99.90;;;;;;2182326;65;20271;-66
2022/03/07 05:43:18;;;;;;;16.15;7.47;;;-1.80;99.90;;;;;;2175104;65;20197;-66
2022/03/07 05:46:00;;;;;;;11.70;7.65;;;-1.80;99.90;;;;;;2174373;65;20306;-65
2022/03/07 05:48:43;;;;;;;12.57;7.90;;;-1.80;99.90;;;;;;2156716;66;20178;-65
2022/03/07 05:51:28;;;;;;;14.98;8.30;;;-1.80;99.90;;;;;;2154581;66;20205;-66
2022/03/07 05:54:10;;;;;;;15.23;8.80;;;-1.80;99.90;;;;;;2154029;66;20750;-66
2022/03/07 05:56:52;;;;;;;13.88;7.40;;;-1.80;99.90;;;;;;2160983;66;20223;-65
2022/03/07 05:59:33;;;;;;;17.35;7.78;;;-1.70;99.90;;;;;;2155660;66;20157;-66
2022/03/07 06:02:16;;;;;;;16.38;7.93;;;-1.60;99.90;;;;;;2154279;66;20173;-65
2022/03/07 06:04:58;;;;;;;11.38;6.93;;;-1.70;99.90;;;;;;2139491;67;20406;-64
2022/03/07 06:07:40;;;;;;;12.60;6.75;;;-1.70;99.90;;;;;;2153849;66;20477;-67
2022/03/07 06:10:21;;;;;;;11.68;6.82;;;-1.70;99.90;;;;;;2139682;67;20245;-66
2022/03/07 06:13:04;;;;;;;13.82;6.63;;;-1.70;99.90;;;;;;2131398;67;20372;-66
2022/03/07 06:15:47;;;;;;;11.85;6.72;;;-1.70;99.90;;;;;;2132663;67;20354;-66
2022/03/07 06:18:30;;;;;;;13.00;6.53;;;-1.70;99.90;;;;;;2143379;66;20459;-66
2022/03/07 06:21:17;;;;;;;10.07;6.80;;;-1.70;99.90;;;;;;2158809;66;20181;-66
2022/03/07 06:24:01;;;;;;;15.82;6.30;;;-1.70;99.90;;;;;;2165282;66;20197;-66
2022/03/07 06:26:48;;;;;;;18.45;7.43;;;-1.70;99.90;;;;;;2153749;66;20647;-66
2022/03/07 06:29:32;;;;;;;17.13;6.03;;;-1.80;99.90;;;;;;2144360;66;20182;-65
2022/03/07 06:32:14;;;;;;;15.73;6.88;;;-1.70;99.90;;;;;;2157913;66;20330;-66
2022/03/07 06:34:58;;;;;;;12.45;7.60;;;-1.80;99.90;;;;;;2168009;66;20168;-67
2022/03/07 06:37:51;;;;;;;12.25;6.47;;;-1.80;99.90;;;;;;2161995;66;20261;-66
2022/03/07 06:40:33;;;;;;;13.55;7.07;;;-1.70;99.90;;;;;;2162861;66;20663;-66
2022/03/07 06:43:17;;;;;;;13.63;7.93;;;-1.70;99.90;;;;;;2154598;66;20816;-66
2022/03/07 06:46:00;;;;;;;11.23;7.28;;;-1.70;99.90;;;;;;2151897;66;20209;-67
2022/03/07 06:48:44;;;;;;;;;;;-1.60;99.90;;;;;;2156142;66;20337;-66
2022/03/07 06:51:27;;;;;;;11.63;6.43;;;-1.50;99.90;;;;;;2161509;66;20071;-65
2022/03/07 06:54:09;;;;;;;11.90;6.20;;;-1.10;99.90;;;;;;2163348;66;20284;-66
2022/03/07 06:56:51;;;;;;;12.20;6.47;;;-1.40;99.90;;;;;;2158594;66;21004;-65
2022/03/07 06:59:33;;;;;;;12.38;6.68;;;-1.20;99.90;;;;;;2153248;66;20224;-65
2022/03/07 07:02:15;;;;;;;10.23;6.68;;;-1.30;99.90;;;;;;2161072;66;20826;-66
2022/03/07 07:04:58;;;;;;;10.35;5.93;;;-1.20;99.90;;;;;;2152476;66;20256;-66
2022/03/07 07:07:40;;;;;;;8.80;6.30;;;-1.20;99.90;;;;;;2153907;66;20269;-66
2022/03/07 07:10:22;;;;;;;13.55;7.57;;;-1.10;99.90;;;;;;2146116;66;20330;-66
2022/03/07 07:13:04;;;;;;;9.35;6.65;;;-1.10;99.90;;;;;;2139091;67;20729;-66
2022/03/07 07:15:54;;;;;;;10.43;6.55;;;-1.00;99.90;;;;;;2149478;66;20166;-66
2022/03/07 07:18:36;;;;;;;10.02;6.50;;;-1.00;99.90;;;;;;2153931;66;20269;-65
2022/03/07 07:21:18;;;;;;;12.43;6.53;;;-1.00;99.90;;;;;;2146587;66;20255;-66
2022/03/07 07:24:00;;;;;;;15.60;6.55;;;-0.90;99.90;;;;;;2153802;66;20197;-65
2022/03/07 07:26:42;;;;;;;11.48;7.35;;;-0.90;99.90;;;;;;2146521;66;20262;-64
2022/03/07 07:29:24;;;;;;;10.80;6.82;;;-0.80;99.90;;;;;;2153826;66;20212;-65
2022/03/07 07:32:08;;;;;;;13.10;7.55;;;-0.70;99.90;;;;;;2153777;66;20286;-66
2022/03/07 07:34:51;;;;;;;8.93;5.60;;;-0.70;99.90;;;;;;2153740;66;20377;-67
2022/03/07 07:37:36;;;;;;;13.00;7.07;;;-0.60;99.90;;;;;;2153769;66;20228;-66
2022/03/07 07:40:22;;;;;;;11.03;7.37;;;-0.50;99.90;;;;;;2154028;66;20658;-66
2022/03/07 07:43:06;;;;;;;12.15;6.90;;;-0.50;99.90;;;;;;2145510;66;20738;-65
2022/03/07 07:45:49;;;;;;;15.65;7.28;;;-0.40;99.90;;;;;;2132960;66;20733;-67
2022/03/07 07:48:38;;;;;;;14.57;7.15;;;-0.30;99.90;;;;;;2146349;66;20238;-65
2022/03/07 07:51:19;;;;;;;9.60;6.63;;;-0.30;99.90;;;;;;2146227;66;20371;-65
2022/03/07 07:54:01;;;;;;;13.43;6.40;;;-0.20;99.90;;;;;;2140147;66;20175;-66
2022/03/07 07:56:45;;;;;;;11.88;6.85;;;0.00;99.90;;;;;;2142611;66;20253;-66
2022/03/07 07:59:29;;;;;;;;;;;0.10;99.90;;;;;;2144629;66;20221;-68
2022/03/07 08:02:13;;;;;;;10.68;6.40;;;0.10;99.90;;;;;;2147076;66;20066;-67
2022/03/07 08:05:03;;;;;;;9.18;6.32;;;0.20;99.90;;;;;;2153623;66;20287;-66
2022/03/07 08:07:45;;;;;;;11.30;5.72;;;0.30;99.90;;;;;;2145512;66;20254;-67
2022/03/07 08:10:27;;;;;;;7.13;5.28;;;0.40;99.90;;;;;;2152918;66;20645;-65
2022/03/07 08:13:08;;;;;;;10.07;5.40;;;0.50;99.90;;;;;;2160112;66;20307;-66
2022/03/07 08:15:50;;;;;;;7.10;5.40;;;0.60;99.90;;;;;;2183088;65;20582;-67
2022/03/07 08:18:32;;;;;;;9.45;5.32;;;0.90;99.90;;;;;;2183148;65;20323;-65
2022/03/07 08:21:16;;;;;;;12.95;6.38;;;0.80;99.90;;;;;;2182873;65;20190;-67
2022/03/07 08:24:01;;;;;;;8.13;5.65;;;0.90;99.90;;;;;;2167784;66;20276;-66
2022/03/07 08:26:46;;;;;;;9.38;5.35;;;1.10;99.90;;;;;;2140627;66;20290;-66
2022/03/07 08:29:29;;;;;;;9.80;5.15;;;1.20;99.90;;;;;;2136866;66;20341;-65
2022/03/07 08:32:11;;;;;;;13.00;5.70;;;1.30;99.90;;;;;;2131996;67;20172;-66
2022/03/07 08:35:13;;;;;;;9.18;4.85;;;1.40;99.90;;;;;;2130264;67;20276;-66
2022/03/07 08:37:54;;;;;;;9.00;4.60;;;1.50;99.90;;;;;;2124648;67;20439;-66
2022/03/07 08:40:37;;;;;;;8.90;4.13;;;1.60;99.90;;;;;;2117729;67;20333;-66
2022/03/07 08:43:19;;;;;;;6.93;4.30;;;1.70;99.90;;;;;;2117647;67;20212;-67
2022/03/07 08:46:01;;;;;;;9.18;4.25;;;1.80;99.90;;;;;;2118716;67;20200;-66
2022/03/07 08:48:44;;;;;;;6.80;4.03;;;2.00;99.90;;;;;;2125436;67;20407;-67
2022/03/07 08:51:29;;;;;;;8.60;4.82;;;2.10;99.90;;;;;;2129575;67;20305;-66
2022/03/07 08:54:11;;;;;;;5.85;4.00;;;2.20;99.90;;;;;;2123742;67;20210;-66
2022/03/07 08:56:52;;;;;;;4.93;3.03;;;2.40;99.90;;;;;;2122364;67;20222;-66
2022/03/07 08:59:34;;;;;;;5.82;2.72;;;2.50;99.90;;;;;;2136476;66;20195;-65
2022/03/07 09:02:20;;;;;;;7.90;2.90;;;2.50;99.90;;;;;;2131870;67;20215;-67
2022/03/07 09:05:05;;;;;;;6.50;2.75;;;2.60;99.90;;;;;;2148486;66;20677;-66
2022/03/07 09:07:46;;;;;;;4.75;2.45;;;2.70;99.90;;;;;;2146770;66;20851;-65
2022/03/07 09:10:30;;;;;;;5.40;2.53;;;2.70;99.90;;;;;;2139469;66;20777;-66
2022/03/07 09:13:16;;;;;;;4.70;2.65;;;2.80;99.90;;;;;;2125171;67;20676;-66
2022/03/07 09:16:02;;;;;;;7.00;2.80;;;2.80;99.90;;;;;;2118135;67;20310;-65
2022/03/07 09:18:46;;;;;;;4.63;2.58;;;3.00;99.90;;;;;;2117930;67;20205;-65
2022/03/07 09:21:30;;;;;;;5.90;2.70;;;3.50;99.90;;;;;;2124782;67;20214;-65
2022/03/07 09:24:14;;;;;;;;;;;3.10;99.90;;;;;;2132484;67;20206;-65
2022/03/07 09:26:55;;;;;;;4.50;2.38;;;3.10;99.90;;;;;;2124995;67;20538;-66
2022/03/07 09:29:37;;;;;;;6.95;2.35;;;3.10;99.90;;;;;;2125045;67;20201;-66
2022/03/07 09:32:21;;;;;;;4.72;2.55;;;3.10;99.90;;;;;;2127795;67;20412;-67
2022/03/07 09:35:05;;;;;;;4.57;2.72;;;3.20;99.90;;;;;;2132448;67;20316;-66
2022/03/07 09:37:48;;;;;;;6.03;2.63;;;3.20;99.90;;;;;;2132244;67;20511;-67
2022/03/07 09:40:38;;;;;;;6.78;2.67;;;3.40;99.90;;;;;;2132236;66;20467;-67
2022/03/07 09:43:22;;;;;;;;;;;3.40;99.90;;;;;;2139724;67;20336;-66
2022/03/07 09:46:09;;;;;;;5.05;2.92;;;3.50;99.90;;;;;;2145816;66;20339;-66
2022/03/07 09:48:54;;;;;;;6.95;2.40;;;3.50;99.90;;;;;;2147327;66;20178;-66
2022/03/07 09:51:36;;;;;;;6.78;2.90;;;3.80;99.90;;;;;;2147568;66;20205;-66
2022/03/07 09:54:18;;;;;;;4.38;2.70;;;3.70;99.90;;;;;;2153768;66;20185;-66
2022/03/07 09:57:00;;;;;;;5.22;2.83;;;3.80;99.90;;;;;;2153701;66;20681;-65
2022/03/07 09:59:45;;;;;;;3.63;2.22;;;3.90;99.90;;;;;;2153818;66;20728;-66
2022/03/07 10:02:30;;;;;;;3.30;2.30;;;4.00;99.90;;;;;;2142144;66;20891;-66
2022/03/07 10:05:12;;;;;;;4.53;2.17;;;4.00;99.90;;;;;;2153697;66;20177;-67
2022/03/07 10:07:54;;;;;;;4.20;2.60;;;4.10;99.90;;;;;;2144324;66;20204;-67
2022/03/07 10:10:41;;;;;;;4.50;2.15;;;4.20;99.90;;;;;;2119707;67;20196;-66
2022/03/07 10:13:26;;;;;;;3.95;1.90;;;4.30;99.90;;;;;;2120092;67;20374;-67
2022/03/07 10:16:11;;;;;;;7.70;2.20;;;4.50;99.90;;;;;;2146363;66;20255;-67
2022/03/07 10:18:57;;;;;;;4.22;1.88;;;4.70;99.90;;;;;;2138384;66;20178;-66
2022/03/07 10:21:48;;;;;;;5.18;2.45;;;4.80;99.90;;;;;;2139604;66;20793;-65
2022/03/07 10:24:35;;;;;;;5.07;2.40;;;5.00;99.90;;;;;;2131806;67;20243;-66
2022/03/07 10:27:30;;;;;;;6.45;1.85;;;5.10;99.90;;;;;;2131859;67;20220;-66
2022/03/07 10:30:24;;;;;;;5.93;2.30;;;5.30;99.90;;;;;;2121389;67;20277;-67
2022/03/07 10:33:11;;;;;;;6.30;2.05;;;5.50;99.90;;;;;;2131783;67;20644;-67
2022/03/07 10:35:54;;;;;;;3.97;2.22;;;5.80;99.90;;;;;;2115347;67;20198;-66
2022/03/07 10:38:37;;;;;;;4.05;2.42;;;5.90;99.90;;;;;;2122483;67;20344;-68
2022/03/07 10:41:19;;;;;;;4.18;2.45;;;6.00;99.90;;;;;;2124673;67;20338;-66
2022/03/07 10:44:00;;;;;;;3.47;2.10;;;6.10;99.90;;;;;;2117633;67;20206;-68
2022/03/07 10:46:42;;;;;;;5.63;2.00;;;6.20;99.90;;;;;;2113911;67;20821;-68
2022/03/07 10:49:25;;;;;;;4.47;2.08;;;6.40;99.90;;;;;;2122168;67;20361;-67
2022/03/07 10:52:09;;;;;;;;;;;6.80;99.90;;;;;;2132162;67;20381;-66
2022/03/07 10:54:51;;;;;;;5.22;1.50;;;7.20;99.90;;;;;;2124901;67;20657;-66
2022/03/07 10:57:42;;;;;;;3.83;1.90;;;7.70;99.90;;;;;;2144614;66;20278;-67
2022/03/07 11:00:27;;;;;;;3.22;1.73;;;8.20;99.90;;;;;;2146194;66;20285;-67
2022/03/07 11:03:18;;;;;;;6.28;2.00;;;8.80;99.90;;;;;;2160874;65;20815;-66
2022/03/07 11:06:02;;;;;;;4.63;2.03;;;9.30;99.90;;;;;;2169193;65;20305;-67
2022/03/07 11:08:46;;;;;;;4.25;1.85;;;9.70;99.90;;;;;;2161029;66;20295;-67
2022/03/07 11:11:28;;;;;;;2.30;1.73;;;10.20;99.90;;;;;;2158101;66;20190;-67
2022/03/07 11:14:11;;;;;;;2.42;1.60;;;10.70;99.90;;;;;;2153084;66;20284;-68
2022/03/07 11:16:56;;;;;;;3.58;1.70;;;10.90;99.90;;;;;;2153752;66;20621;-66
2022/03/07 11:19:40;;;;;;;4.75;1.48;;;11.00;99.90;;;;;;2144611;66;20183;-66
2022/03/07 11:22:22;;;;;;;2.92;1.60;;;11.20;99.90;;;;;;2139418;67;20374;-66
2022/03/07 11:25:10;;;;;;;1.88;1.40;;;11.30;99.90;;;;;;2145577;66;20288;-66
2022/03/07 11:27:55;;;;;;;6.30;1.90;;;11.50;99.90;;;;;;2138115;67;20180;-66
2022/03/07 11:30:43;;;;;;;2.15;1.60;;;11.80;99.90;;;;;;2139373;67;20167;-67
2022/03/07 11:33:33;;;;;;;2.17;1.65;;;12.20;99.90;;;;;;2137936;67;20659;-67
2022/03/07 11:36:19;;;;;;;4.78;1.85;;;12.70;99.90;;;;;;2132008;67;20309;-67
2022/03/07 11:39:04;;;;;;;2.35;1.38;;;13.40;96.70;;;;;;2147646;66;20203;-67
2022/03/07 11:41:51;;;;;;;1.58;1.20;;;14.20;92.90;;;;;;2146416;66;20311;-67
2022/03/07 11:44:34;;;;;;;2.55;1.33;;;15.00;83.30;;;;;;1925730;66;15090620;-67
2022/03/07 11:47:20;;;;;;;1.88;1.23;;;15.60;73.30;;;;;;2152131;66;20240;-68
2022/03/07 11:50:02;;;;;;;1.77;1.10;;;15.90;66.40;;;;;;2153635;66;20301;-66
2022/03/07 11:52:48;;;;;;;3.13;1.20;;;15.90;63.00;;;;;;2153669;66;20169;-67
2022/03/07 11:55:42;;;;;;;2.50;1.23;;;15.60;60.30;;;;;;2153601;66;20270;-66
2022/03/07 11:58:32;;;;;;;2.50;0.90;;;15.10;60.20;;;;;;2160768;66;20185;-67
2022/03/07 12:01:14;;;;;;;2.70;1.52;;;14.80;60.40;;;;;;2160969;66;20375;-67
2022/03/07 12:04:06;;;;;;;1.73;0.90;;;14.40;59.70;;;;;;2146367;66;20370;-67
2022/03/07 12:06:50;;;;;;;3.13;1.48;;;13.90;58.80;;;;;;2139087;67;20757;-67
2022/03/07 12:09:52;;;;;;;4.47;1.33;;;13.60;59.40;;;;;;2137251;67;20304;-67
2022/03/07 12:12:34;;;;;;;2.75;1.08;;;13.40;59.20;;;;;;2142425;66;20389;-67
2022/03/07 12:15:15;;;;;;;3.33;1.13;;;13.20;58.90;;;;;;2156050;66;20882;-67
2022/03/07 12:17:58;;;;;;;2.05;0.82;;;12.90;59.20;;;;;;2155885;66;20789;-68
2022/03/07 12:20:50;;;;;;;4.13;1.05;;;12.70;59.30;;;;;;2153575;66;20634;-67
2022/03/07 12:23:34;;;;;;;1.98;0.80;;;12.50;59.50;;;;;;2158162;66;20253;-68
2022/03/07 12:26:20;;;;;;;3.13;1.33;;;12.30;60.20;;;;;;2138967;67;20179;-67
2022/03/07 12:29:05;;;;;;;4.15;1.40;;;12.40;61.20;;;;;;2138973;67;20324;-66
2022/03/07 12:31:56;;;;;;;5.05;1.48;;;12.70;62.60;;;;;;2124705;67;20353;-67
2022/03/07 12:34:41;;;;;;;1.80;1.10;;;13.60;62.60;;;;;;2131800;67;20349;-67
2022/03/07 12:37:29;;;;;;;3.63;0.80;;;14.60;60.60;;;;;;2143928;66;20362;-68
2022/03/07 12:40:13;;;;;;;1.67;0.82;;;15.10;58.50;;;;;;2154706;66;20268;-67
2022/03/07 12:42:58;;;;;;;2.92;0.88;;;15.20;56.00;;;;;;2140151;67;20362;-67
2022/03/07 12:45:47;;;;;;;3.38;0.80;;;15.00;54.30;;;;;;2131389;67;20180;-67
2022/03/07 12:48:37;;;;;;;2.72;1.45;;;14.80;53.90;;;;;;2123603;67;20200;-67
2022/03/07 12:51:20;;;;;;;0.80;0.80;;;14.90;54.00;;;;;;2132963;67;20380;-67
2022/03/07 12:54:03;;;;;;;0.85;0.60;;;15.30;53.60;;;;;;2131075;67;20203;-66
2022/03/07 12:56:45;;;;;;;1.15;0.70;;;16.00;52.50;;;;;;2129114;67;20190;-67
2022/03/07 12:59:28;;;;;;;1.88;0.82;;;17.00;50.80;;;;;;2131449;67;20845;-67
2022/03/07 13:02:11;;;;;;;2.42;1.20;;;18.20;49.40;;;;;;2132880;67;20337;-68
2022/03/07 13:04:56;;;;;;;2.95;2.00;;;19.30;48.60;;;;;;2131600;67;20286;-67
2022/03/07 13:07:54;;;;;;;1.98;1.00;;;20.20;47.30;;;;;;2127602;67;20251;-67
2022/03/07 13:10:36;;;;;;;2.70;1.50;;;21.10;46.50;;;;;;2138203;67;20760;-67
2022/03/07 13:13:17;;;;;;;1.98;1.40;;;22.00;45.40;;;;;;2137300;67;20632;-69
2022/03/07 13:15:59;;;;;;;3.30;1.50;;;22.70;44.00;;;;;;2139929;67;20737;-68
2022/03/07 13:18:41;;;;;;;2.47;1.30;;;23.20;43.80;;;;;;2132795;67;20211;-67
2022/03/07 13:21:24;;;;;;;2.60;1.52;;;23.70;42.30;;;;;;2132828;67;20645;-66
2022/03/07 13:24:08;;;;;;;2.35;1.90;;;24.20;41.00;;;;;;2132662;67;20755;-67
2022/03/07 13:26:57;;;;;;;3.47;1.90;;;24.70;40.00;;;;;;2133285;67;20326;-68
2022/03/07 13:29:41;;;;;;;3.22;1.65;;;25.30;39.30;;;;;;2134856;67;20345;-67
2022/03/07 13:32:25;;;;;;;2.72;1.60;;;25.50;38.50;;;;;;2133719;67;20214;-67
2022/03/07 13:35:24;;;;;;;2.97;1.80;;;25.50;38.20;;;;;;2139737;66;20625;-69
2022/03/07 13:38:08;;;;;;;2.90;1.73;;;25.40;37.70;;;;;;2132596;67;20179;-68
2022/03/07 13:40:50;;;;;;;2.90;2.33;;;25.20;38.10;;;;;;2126596;67;20312;-67
2022/03/07 13:43:37;;;;;;;5.38;2.10;;;25.10;37.20;;;;;;2139673;66;20760;-68
2022/03/07 13:46:26;;;;;;;3.85;2.22;;;24.60;37.40;;;;;;2135016;66;20195;-68
2022/03/07 13:49:09;;;;;;;1.75;1.40;;;24.30;37.30;;;;;;2148187;66;20314;-67
2022/03/07 13:51:54;;;;;;;2.70;1.30;;;24.40;37.30;;;;;;2153655;66;20314;-68
2022/03/07 13:54:39;;;;;;;2.13;1.45;;;24.50;36.70;;;;;;2156363;66;20682;-68
2022/03/07 13:57:22;;;;;;;1.75;1.35;;;24.70;36.50;;;;;;2145971;66;20203;-67
2022/03/07 14:00:06;;;;;;;3.70;1.00;;;24.90;35.40;;;;;;2144178;66;20331;-68
2022/03/07 14:02:52;;;;;;;4.28;1.50;;;24.90;35.10;;;;;;2138534;66;20437;-68
2022/03/07 14:05:46;;;;;;;2.63;1.23;;;25.00;35.30;;;;;;2132373;67;20458;-68
2022/03/07 14:08:42;;;;;;;1.25;0.90;;;25.10;34.10;;;;;;2148664;66;20217;-67
2022/03/07 14:11:24;;;;;;;1.23;0.98;;;25.20;34.60;;;;;;2149908;66;20187;-67
2022/03/07 14:14:19;;;;;;;3.13;1.50;;;25.30;33.50;;;;;;2137485;66;20820;-67
2022/03/07 14:17:16;;;;;;;1.95;1.15;;;25.20;33.30;;;;;;2124665;67;20226;-67